Abie, Nebraska
Current Conditions -  °F | °C
As of 6:15 PM on Friday 24 Oct 2014 (Local Time) from KAHQ Reporting Station
Clear Clear  
Wind Chill: 71°   Ceiling: Unl
Heat Index: 71°   Visibility: 10mi
Dew Point: 48°   Wind: 3mph
Humidity: 44%   Direction: 340°NNW
Pressure: 29.93"   Gusts: NA
Location:  41.33°N, 96.95°W
Report Text: KAHQ 242315Z AUTO 34003KT 10SM CLR 22/09 A2993 RMK AO2 T02180091
Loading
Personal Weather Stations






























Interactive Weather Map
Tropical Storm Tracking
New forecast layout! Learn more

10-Day Weather Forecast

Advertisements
Track Severe Weather on mobile